Time;durP1;ratioP1;P1;durP2;ratioP2;P2;SDS_P1;SDS_P2;PMS_P1;PMS_P2;Temp;Humidity;BMP_temperature;BMP_pressure;BME280_temperature;BME280_humidity;BME280_pressure;Samples;Min_cycle;Max_cycle;Signal;HPM_P1;HPM_P2
2023/08/07 00:04:19;;;;;;;;;;;;;;;17.65;49.07;93923.91;5058466;28;20040;-86
2023/08/07 00:06:45;;;;;;;2.45;0.50;;;;;;;17.48;49.19;93922.13;5059140;28;19908;-87
2023/08/07 00:09:10;;;;;;;1.35;0.65;;;;;;;17.47;49.20;93925.88;5058838;28;20051;-86
2023/08/07 00:11:36;;;;;;;1.33;0.70;;;;;;;17.40;49.29;93922.97;5057823;28;20043;-87
2023/08/07 00:14:01;;;;;;;1.58;0.50;;;;;;;17.30;48.90;93916.16;5059292;28;20378;-88
2023/08/07 00:16:45;;;;;;;1.33;0.60;;;;;;;17.75;47.08;93917.44;5059249;28;20041;-87
2023/08/07 00:19:11;;;;;;;3.85;0.75;;;;;;;17.84;46.89;93930.63;5058598;28;20040;-87
2023/08/07 00:21:37;;;;;;;2.33;1.17;;;;;;;17.58;48.87;93920.97;5058008;28;20359;-86
2023/08/07 00:24:03;;;;;;;0.82;0.50;;;;;;;17.52;48.67;93917.75;5041150;28;20389;-87
2023/08/07 00:26:28;;;;;;;2.05;0.50;;;;;;;17.56;47.79;93920.53;5057962;28;20037;-87
2023/08/07 00:28:54;;;;;;;1.23;0.65;;;;;;;17.43;48.03;93916.25;5058921;28;20040;-87
2023/08/07 00:31:19;;;;;;;2.05;0.47;;;;;;;17.49;48.22;93917.59;5041131;28;20037;-86
2023/08/07 00:33:45;;;;;;;0.70;0.50;;;;;;;17.53;47.91;93916.63;5057681;28;20047;-87
2023/08/07 00:36:31;;;;;;;1.77;0.50;;;;;;;17.31;48.50;93924.91;5057523;28;20029;-86
2023/08/07 00:38:56;;;;;;;5.03;0.98;;;;;;;17.27;49.15;93923.97;5058788;28;20086;-87
2023/08/07 00:41:22;;;;;;;3.53;0.68;;;;;;;17.14;49.52;93920.47;5057677;28;20469;-86
2023/08/07 00:43:47;;;;;;;2.45;0.63;;;;;;;17.25;48.53;93919.00;5058065;28;20037;-87
2023/08/07 00:46:31;;;;;;;1.38;0.60;;;;;;;17.22;48.39;93920.41;5058659;28;20040;-87
2023/08/07 00:51:40;;;;;;;1.63;0.50;;;;;;;17.21;48.54;93910.94;5058074;28;20044;-88
2023/08/07 00:54:07;;;;;;;1.67;0.70;;;;;;;17.14;48.43;93918.56;5057338;28;20036;-87
2023/08/07 00:56:33;;;;;;;4.95;0.60;;;;;;;17.25;48.23;93916.38;5057286;28;20041;-87
2023/08/07 00:58:59;;;;;;;2.08;0.65;;;;;;;17.16;47.92;93908.47;5057253;28;20062;-88
2023/08/07 01:01:25;;;;;;;2.75;0.55;;;;;;;17.04;49.12;93921.59;5057018;28;20338;-88
2023/08/07 01:03:51;;;;;;;0.95;0.50;;;;;;;16.99;48.90;93919.09;5040608;28;20025;-87
2023/08/07 01:06:16;;;;;;;1.45;0.55;;;;;;;17.03;48.49;93926.13;5039387;28;20033;-87
2023/08/07 01:08:42;;;;;;;0.75;0.40;;;;;;;17.05;47.91;93920.50;5038187;28;20116;-87
2023/08/07 01:11:08;;;;;;;2.35;0.57;;;;;;;17.02;47.57;93924.56;5054973;28;20075;-88
2023/08/07 01:13:39;;;;;;;1.95;0.65;;;;;;;16.86;47.18;93928.81;5077625;28;20029;-87
2023/08/07 01:16:13;;;;;;;1.95;0.50;;;;;;;16.87;47.86;93928.50;5060142;28;20059;-86
2023/08/07 01:18:40;;;;;;;1.00;0.45;;;;;;;16.79;47.93;93938.03;5064684;28;20460;-87
2023/08/07 01:21:06;;;;;;;1.70;0.60;;;;;;;16.79;48.40;93930.09;5057315;28;20342;-86
2023/08/07 01:26:35;;;;;;;1.00;0.50;;;;;;;16.15;50.12;93925.59;5037520;28;20029;-86
2023/08/07 01:29:09;;;;;;;1.48;0.70;;;;;;;16.35;50.07;93930.19;5037543;28;20084;-87
2023/08/07 01:31:36;;;;;;;1.83;0.40;;;;;;;16.40;48.89;93935.31;5037929;28;20183;-87
2023/08/07 01:34:08;;;;;;;3.90;0.70;;;;;;;16.49;48.65;93940.56;5036424;28;20047;-87
2023/08/07 01:36:33;;;;;;;2.92;0.57;;;;;;;16.52;48.52;93941.81;5036412;28;20044;-87
2023/08/07 01:39:00;;;;;;;3.78;0.55;;;;;;;16.27;50.07;93940.78;5036281;28;20037;-86
2023/08/07 01:41:26;;;;;;;2.05;0.60;;;;;;;16.21;50.14;93940.97;5036278;28;20041;-86
2023/08/07 01:46:54;;;;;;;0.65;0.45;;;;;;;16.17;50.12;93947.19;5036320;28;20033;-86
2023/08/07 01:49:19;;;;;;;1.33;0.57;;;;;;;16.05;50.15;93950.44;5035766;28;20440;-87
2023/08/07 01:52:03;;;;;;;2.55;0.32;;;;;;;16.11;49.01;93954.50;5036274;28;20032;-85
2023/08/07 01:54:29;;;;;;;4.18;0.50;;;;;;;15.96;49.75;93961.00;5035865;28;20128;-85
2023/08/07 01:57:13;;;;;;;1.55;0.70;;;;;;;16.06;49.00;93954.63;5037225;28;20068;-85
2023/08/07 01:59:38;;;;;;;1.00;0.50;;;;;;;15.74;52.98;93953.97;5019364;28;20068;-86
2023/08/07 02:02:04;;;;;;;0.68;0.30;;;;;;;15.74;51.31;93956.63;5019199;28;20128;-85
2023/08/07 02:04:29;;;;;;;1.70;0.40;;;;;;;15.86;50.39;93953.38;5035877;28;20336;-85
2023/08/07 02:06:54;;;;;;;1.63;0.40;;;;;;;15.88;50.03;93946.69;5036738;28;20033;-85
2023/08/07 02:09:21;;;;;;;4.05;0.50;;;;;;;15.77;53.04;93948.88;5036957;28;20071;-85
2023/08/07 02:11:48;;;;;;;6.47;0.52;;;;;;;15.60;52.25;93941.69;5035797;28;20501;-85
2023/08/07 02:14:13;;;;;;;0.57;0.40;;;;;;;15.50;54.82;93939.38;5036744;28;20032;-85
2023/08/07 02:16:39;;;;;;;1.77;0.60;;;;;;;15.60;51.49;93935.66;5035836;28;20116;-86
2023/08/07 02:19:04;;;;;;;1.02;0.40;;;;;;;15.49;52.88;93946.50;5035424;28;20033;-85
2023/08/07 02:21:31;;;;;;;1.23;0.40;;;;;;;15.38;54.03;93943.38;5036139;28;20434;-85
2023/08/07 02:23:56;;;;;;;0.65;0.50;;;;;;;15.24;54.73;93942.72;5035486;28;20021;-85
2023/08/07 02:26:22;;;;;;;1.77;0.38;;;;;;;15.27;54.39;93942.13;5035768;28;20033;-85
2023/08/07 02:28:47;;;;;;;5.53;0.40;;;;;;;15.36;53.52;93947.41;5035354;28;20041;-86
2023/08/07 02:31:31;;;;;;;1.33;0.57;;;;;;;15.35;55.58;93951.13;5035545;28;20040;-84
2023/08/07 02:33:57;;;;;;;0.73;0.38;;;;;;;15.16;55.26;93952.19;5036405;28;20462;-85
2023/08/07 02:36:22;;;;;;;1.33;0.52;;;;;;;14.82;58.48;93953.59;5035410;28;20178;-85
2023/08/07 02:38:48;;;;;;;0.95;0.52;;;;;;;15.42;51.58;93959.38;5035757;28;20422;-86
2023/08/07 02:41:32;;;;;;;1.25;0.50;;;;;;;15.17;53.76;93963.50;5036462;28;20022;-86
2023/08/07 02:43:57;;;;;;;1.23;0.43;;;;;;;15.12;56.00;93965.19;5035832;28;20061;-85
2023/08/07 02:46:41;;;;;;;2.05;0.50;;;;;;;14.99;55.10;93963.44;5018956;28;20066;-86
2023/08/07 02:49:07;;;;;;;4.05;0.60;;;;;;;15.06;55.72;93966.44;5036292;28;20029;-86
2023/08/07 02:51:32;;;;;;;1.35;0.52;;;;;;;14.82;56.37;93972.06;5035451;28;20090;-86
2023/08/07 02:53:58;;;;;;;1.25;0.50;;;;;;;14.78;55.06;93973.75;5051980;28;20048;-86
2023/08/07 02:56:23;;;;;;;2.83;0.60;;;;;;;15.04;53.47;93976.50;5035372;28;20041;-88
2023/08/07 02:58:48;;;;;;;1.70;0.50;;;;;;;15.08;54.03;93974.81;5035489;28;20030;-86
2023/08/07 03:01:14;;;;;;;0.70;0.50;;;;;;;15.18;52.33;93976.41;5035386;28;20450;-87
2023/08/07 03:03:39;;;;;;;2.58;0.65;;;;;;;15.23;51.75;93975.50;5036771;28;20083;-86
2023/08/07 03:09:07;;;;;;;2.78;0.50;;;;;;;15.26;52.08;93983.56;5036135;28;20525;-88
2023/08/07 03:11:33;;;;;;;1.25;0.45;;;;;;;15.36;50.67;93989.63;5035472;28;20033;-85
2023/08/07 03:13:58;;;;;;;1.40;0.40;;;;;;;15.36;50.96;93993.06;5036447;28;20343;-86
2023/08/07 03:16:27;;;;;;;0.82;0.40;;;;;;;15.20;51.30;93995.34;5036157;28;20026;-86
2023/08/07 03:18:52;;;;;;;2.60;0.47;;;;;;;15.29;52.02;93997.25;5034881;28;20309;-85
2023/08/07 03:21:17;;;;;;;0.65;0.40;;;;;;;15.32;50.22;94000.03;5035065;28;20029;-86
2023/08/07 03:23:43;;;;;;;1.10;0.47;;;;;;;15.34;50.09;93991.81;5036244;28;20033;-85
2023/08/07 03:26:31;;;;;;;0.90;0.35;;;;;;;15.18;55.59;93991.44;5034893;28;20025;-85
2023/08/07 03:28:56;;;;;;;0.93;0.60;;;;;;;14.88;59.62;93993.81;5035945;28;20032;-86
2023/08/07 03:31:22;;;;;;;0.57;0.28;;;;;;;14.49;61.13;93991.56;5035092;28;20045;-85
2023/08/07 03:34:06;;;;;;;0.40;0.30;;;;;;;14.18;62.98;93989.63;5039234;28;20347;-86
2023/08/07 03:36:31;;;;;;;1.08;0.40;;;;;;;14.17;63.03;93998.63;5038314;28;20060;-86
2023/08/07 03:38:57;;;;;;;1.35;0.40;;;;;;;14.15;62.07;94000.78;5039668;28;20065;-86
2023/08/07 03:41:41;;;;;;;1.38;0.38;;;;;;;14.30;57.93;93994.38;5038614;28;20067;-86
2023/08/07 03:44:06;;;;;;;1.38;0.40;;;;;;;13.93;64.55;93997.06;5039737;28;20073;-86
2023/08/07 03:46:32;;;;;;;0.20;0.20;;;;;;;14.22;61.56;94001.16;5038565;28;20226;-86
2023/08/07 03:48:57;;;;;;;1.00;0.40;;;;;;;14.20;59.40;94005.94;5021751;28;20082;-86
2023/08/07 03:51:23;;;;;;;0.85;0.30;;;;;;;14.24;56.30;94003.47;5038003;28;20350;-86
2023/08/07 03:53:49;;;;;;;0.50;0.40;;;;;;;14.35;55.06;94001.41;5038387;28;20033;-86
2023/08/07 03:56:14;;;;;;;0.47;0.40;;;;;;;14.40;58.35;94006.53;5038260;28;20034;-86
2023/08/07 03:58:40;;;;;;;0.22;0.22;;;;;;;14.21;58.24;94004.06;5053105;28;20058;-86
2023/08/07 04:01:06;;;;;;;0.30;0.30;;;;;;;14.41;55.49;94002.81;5050394;28;20426;-86
2023/08/07 04:03:31;;;;;;;1.08;0.47;;;;;;;14.30;60.48;94009.41;5043551;28;20034;-87
2023/08/07 04:06:35;;;;;;;1.02;0.50;;;;;;;14.26;59.53;94020.53;5060697;28;20123;-87
2023/08/07 04:09:01;;;;;;;3.33;0.52;;;;;;;14.14;56.86;94022.94;5055784;28;20419;-86
2023/08/07 04:11:27;;;;;;;0.32;0.22;;;;;;;14.22;56.88;94021.44;5057931;28;20112;-87
2023/08/07 04:13:52;;;;;;;2.53;0.40;;;;;;;14.08;58.64;94021.50;5058274;28;20082;-87
2023/08/07 04:16:18;;;;;;;0.35;0.28;;;;;;;14.09;59.83;94023.06;5057936;28;20369;-87
2023/08/07 04:18:43;;;;;;;1.63;0.32;;;;;;;14.03;55.94;94018.97;5059194;28;20032;-87
2023/08/07 04:21:09;;;;;;;2.13;0.30;;;;;;;14.16;58.39;94012.88;5057728;28;20029;-87
2023/08/07 04:23:34;;;;;;;0.32;0.20;;;;;;;14.24;57.44;94014.00;5059144;28;20303;-87
2023/08/07 04:26:00;;;;;;;0.52;0.38;;;;;;;14.22;57.11;94009.06;5058007;28;20071;-86
2023/08/07 04:28:28;;;;;;;0.63;0.35;;;;;;;14.25;57.57;94011.09;5057410;28;20028;-87
2023/08/07 04:30:54;;;;;;;1.20;0.50;;;;;;;14.23;56.48;94017.72;5057725;28;20323;-86
2023/08/07 04:33:20;;;;;;;0.90;0.30;;;;;;;14.31;55.94;94014.38;5074065;28;20030;-87
2023/08/07 04:35:46;;;;;;;0.45;0.32;;;;;;;14.34;55.06;94013.00;5077471;28;20337;-87
2023/08/07 04:38:13;;;;;;;0.88;0.35;;;;;;;14.25;57.80;94015.56;5077781;28;20086;-87
2023/08/07 04:43:48;;;;;;;2.75;0.40;;;;;;;14.46;56.93;94023.78;5077255;28;20031;-86
2023/08/07 04:46:13;;;;;;;0.65;0.35;;;;;;;14.44;56.84;94031.22;5078596;28;20503;-87
2023/08/07 04:48:38;;;;;;;1.15;0.55;;;;;;;14.46;57.10;94025.66;5077358;28;20024;-87
2023/08/07 04:51:04;;;;;;;0.80;0.50;;;;;;;14.33;58.61;94027.25;5078560;28;20365;-87
2023/08/07 04:53:29;;;;;;;0.82;0.40;;;;;;;14.18;61.19;94031.03;5077119;28;20033;-87
2023/08/07 04:55:55;;;;;;;1.17;0.40;;;;;;;14.42;54.52;94028.09;5077290;28;20128;-88
2023/08/07 04:58:20;;;;;;;1.00;0.40;;;;;;;14.60;61.35;94026.38;5077063;28;20032;-87
2023/08/07 05:00:46;;;;;;;1.27;0.40;;;;;;;14.33;62.19;94027.25;5078461;28;20028;-87
2023/08/07 05:03:31;;;;;;;0.88;0.40;;;;;;;14.35;61.34;94036.41;5077254;28;20037;-87
2023/08/07 05:06:00;;;;;;;1.25;0.50;;;;;;;14.77;54.46;94033.63;5078070;28;20083;-87
2023/08/07 05:08:26;;;;;;;0.80;0.50;;;;;;;14.90;54.20;94036.47;5077167;28;20116;-88
2023/08/07 05:10:51;;;;;;;1.42;0.40;;;;;;;15.06;57.22;94031.59;5076665;28;20032;-88
2023/08/07 05:13:16;;;;;;;0.98;0.40;;;;;;;15.10;57.49;94029.91;5076635;28;20037;-87
2023/08/07 05:15:42;;;;;;;0.32;0.20;;;;;;;14.88;55.96;94036.78;5076606;28;20040;-87
2023/08/07 05:18:09;;;;;;;0.50;0.40;;;;;;;14.93;72.68;94038.53;5076688;28;20408;-87
2023/08/07 05:20:34;;;;;;;1.35;0.30;;;;;;;15.00;76.53;94038.09;5077897;28;20035;-87
2023/08/07 05:23:19;;;;;;;0.40;0.30;;;;;;;15.17;72.79;94040.03;5059752;28;20028;-87
2023/08/07 05:25:47;;;;;;;0.93;0.40;;;;;;;14.60;80.49;94036.91;5077780;28;20068;-86
2023/08/07 05:28:13;;;;;;;1.73;0.50;;;;;;;14.71;95.13;94050.63;5076513;28;20044;-87
2023/08/07 05:30:57;;;;;;;1.55;0.40;;;;;;;14.31;91.73;94051.28;5059842;28;20050;-87
2023/08/07 05:33:22;;;;;;;0.70;0.30;;;;;;;14.26;91.05;94051.38;5077581;28;20040;-88
2023/08/07 05:36:06;;;;;;;0.70;0.50;;;;;;;14.34;82.32;94060.44;5058612;28;20025;-88
2023/08/07 05:38:32;;;;;;;2.90;0.50;;;;;;;14.50;97.75;94061.66;5057517;28;20443;-88
2023/08/07 05:40:57;;;;;;;6.72;0.60;;;;;;;14.67;81.44;94062.84;5056226;28;20032;-88
2023/08/07 05:43:23;;;;;;;1.58;0.40;;;;;;;14.98;83.28;94067.41;5056279;28;20037;-88
2023/08/07 05:45:48;;;;;;;0.68;0.30;;;;;;;14.72;86.79;94072.53;5056423;28;20047;-88
2023/08/07 05:48:16;;;;;;;0.60;0.30;;;;;;;14.53;100.00;94073.44;5057373;28;20033;-87
2023/08/07 05:53:25;;;;;;;1.08;0.60;;;;;;;15.50;80.25;94074.03;5056355;28;20078;-87
2023/08/07 05:58:35;;;;;;;0.98;0.47;;;;;;;15.40;96.29;94081.13;5056859;28;20032;-86
2023/08/07 06:04:03;;;;;;;0.95;0.50;;;;;;;15.60;85.35;94075.59;5056838;28;20056;-86
2023/08/07 06:06:29;;;;;;;1.45;0.45;;;;;;;16.01;90.64;94078.97;5055958;28;20033;-86
2023/08/07 06:08:55;;;;;;;0.30;0.30;;;;;;;16.34;60.98;94071.41;5056898;28;20037;-86
2023/08/07 06:11:20;;;;;;;4.63;0.50;;;;;;;16.18;100.00;94078.25;5055663;28;20084;-86
2023/08/07 06:13:46;;;;;;;0.90;0.47;;;;;;;16.58;55.87;94077.31;5056735;28;20037;-86
2023/08/07 06:16:11;;;;;;;0.93;0.40;;;;;;;16.84;54.87;94079.91;5055711;28;20037;-86
2023/08/07 06:18:37;;;;;;;1.00;0.60;;;;;;;17.02;55.55;94082.59;5061491;28;20043;-84
2023/08/07 06:21:06;;;;;;;1.52;0.40;;;;;;;16.78;59.65;94086.47;5055450;28;20051;-81
2023/08/07 06:23:32;;;;;;;0.80;0.40;;;;;;;17.16;49.71;94083.16;5055441;28;20077;-83
2023/08/07 06:25:57;;;;;;;0.47;0.40;;;;;;;17.31;50.86;94084.50;5039009;28;20341;-86
2023/08/07 06:28:22;;;;;;;1.00;0.50;;;;;;;17.51;47.06;94085.69;5056426;28;20541;-86
2023/08/07 06:31:07;;;;;;;1.25;0.55;;;;;;;17.53;52.27;94085.38;5056564;28;20106;-82
2023/08/07 06:33:33;;;;;;;0.30;0.30;;;;;;;17.61;51.34;94087.19;5055178;28;20031;-84
2023/08/07 06:36:00;;;;;;;4.38;0.57;;;;;;;17.57;47.84;94096.88;5038819;28;20079;-84
2023/08/07 06:38:25;;;;;;;0.40;0.40;;;;;;;17.61;45.67;94084.56;5055513;28;20346;-84
2023/08/07 06:40:51;;;;;;;0.50;0.40;;;;;;;17.47;47.80;94090.06;5056463;28;20021;-83
2023/08/07 06:43:16;;;;;;;0.43;0.30;;;;;;;17.69;50.05;94084.84;5038608;28;20032;-85
2023/08/07 06:45:41;;;;;;;0.60;0.30;;;;;;;17.72;47.85;94087.66;5055346;28;20079;-86
2023/08/07 06:48:07;;;;;;;0.38;0.30;;;;;;;17.80;48.84;94088.69;5055039;28;20025;-85
2023/08/07 06:50:51;;;;;;;0.40;0.28;;;;;;;17.70;47.14;94073.91;5056280;28;20036;-83
2023/08/07 06:56:00;;;;;;;0.40;0.25;;;;;;;17.89;47.92;94075.41;5054859;28;20035;-83
2023/08/07 06:58:26;;;;;;;0.65;0.40;;;;;;;17.75;46.24;94080.91;5056403;28;20346;-85
2023/08/07 07:01:29;;;;;;;1.65;0.30;;;;;;;17.76;46.48;94077.16;5055954;28;20017;-83
2023/08/07 07:03:54;;;;;;;0.93;0.50;;;;;;;17.78;46.64;94085.56;5056029;28;20035;-83
2023/08/07 07:06:57;;;;;;;1.08;0.32;;;;;;;18.04;47.43;94080.16;5057681;28;20032;-84
2023/08/07 07:09:41;;;;;;;2.70;0.50;;;;;;;18.21;49.59;94079.25;5059932;28;20024;-83
2023/08/07 07:12:29;;;;;;;0.90;0.50;;;;;;;18.37;48.99;94074.16;5060028;28;20468;-83
2023/08/07 07:14:54;;;;;;;0.77;0.30;;;;;;;18.51;50.21;94078.44;5059720;28;20450;-84
2023/08/07 07:17:19;;;;;;;0.98;0.40;;;;;;;18.59;48.49;94080.25;5059677;28;20088;-84
2023/08/07 07:23:06;;;;;;;7.28;1.13;;;;;;;18.54;46.91;94079.66;5059841;28;20130;-85
2023/08/07 07:25:32;;;;;;;3.00;0.82;;;;;;;18.64;47.30;94076.59;5059916;28;20112;-85
2023/08/07 07:33:44;;;;;;;1.10;0.60;;;;;;;18.79;44.49;94077.88;5059615;28;20079;-83
2023/08/07 07:39:21;;;;;;;2.22;0.40;;;;;;;18.97;45.35;94083.81;5058432;28;20071;-86
2023/08/07 07:42:06;;;;;;;0.80;0.35;;;;;;;19.29;40.57;94084.13;5058306;28;20032;-86
2023/08/07 07:44:32;;;;;;;0.52;0.30;;;;;;;19.47;44.13;94100.66;5059749;28;20033;-88
2023/08/07 07:46:57;;;;;;;0.80;0.40;;;;;;;19.45;45.86;94094.13;5058431;28;20037;-84
2023/08/07 07:49:22;;;;;;;2.05;0.40;;;;;;;19.03;42.21;94100.34;5058430;28;20048;-83
2023/08/07 07:51:49;;;;;;;1.70;0.60;;;;;;;19.09;39.79;94099.03;5059517;28;20323;-84
2023/08/07 07:54:14;;;;;;;0.73;0.50;;;;;;;18.90;38.63;94102.13;5059399;28;20083;-83
2023/08/07 07:56:40;;;;;;;0.55;0.40;;;;;;;19.07;40.17;94106.53;5058098;28;20450;-84
2023/08/07 08:02:27;;;;;;;0.45;0.30;;;;;;;19.47;41.67;94108.63;5059077;28;20031;-87
2023/08/07 08:04:52;;;;;;;0.75;0.50;;;;;;;19.43;45.47;94131.63;5058063;28;20185;-86
2023/08/07 08:07:36;;;;;;;0.65;0.38;;;;;;;19.60;44.01;94120.03;5059271;28;20039;-86
2023/08/07 08:10:02;;;;;;;0.35;0.30;;;;;;;19.46;39.86;94108.94;5058846;28;20029;-85
2023/08/07 08:12:30;;;;;;;1.20;0.70;;;;;;;19.42;39.47;94108.81;5057570;28;20032;-85
2023/08/07 08:14:55;;;;;;;0.75;0.40;;;;;;;19.53;41.83;94125.13;5041312;28;20115;-85
2023/08/07 08:17:21;;;;;;;0.57;0.50;;;;;;;19.90;44.53;94127.81;5057137;28;20112;-85
2023/08/07 08:20:05;;;;;;;0.52;0.40;;;;;;;20.03;45.75;94130.50;5058414;28;20033;-83
2023/08/07 08:22:49;;;;;;;0.30;0.30;;;;;;;19.85;40.88;94121.94;5059033;28;20108;-85
2023/08/07 08:25:33;;;;;;;0.70;0.38;;;;;;;19.95;42.29;94131.41;5057805;28;20036;-84
2023/08/07 08:27:59;;;;;;;0.98;0.30;;;;;;;20.06;43.65;94135.13;5058448;28;20029;-85
2023/08/07 08:30:25;;;;;;;0.47;0.35;;;;;;;19.82;40.81;94134.03;5057576;28;20068;-85
2023/08/07 08:32:50;;;;;;;0.40;0.32;;;;;;;19.87;39.40;94133.00;5057213;28;20512;-86
2023/08/07 08:35:16;;;;;;;0.60;0.40;;;;;;;20.09;43.49;94141.69;5057237;28;20060;-83
2023/08/07 08:37:41;;;;;;;1.08;0.30;;;;;;;19.82;41.25;94160.59;5057228;28;20025;-86
2023/08/07 08:40:11;;;;;;;0.45;0.40;;;;;;;19.86;39.79;94142.09;5040604;28;20035;-84
2023/08/07 08:42:39;;;;;;;1.65;0.50;;;;;;;19.99;39.38;94142.91;5058669;28;20028;-85
2023/08/07 08:48:07;;;;;;;0.45;0.35;;;;;;;19.88;38.15;94153.19;5057313;28;20075;-85
2023/08/07 08:51:12;;;;;;;0.43;0.30;;;;;;;19.80;39.19;94156.72;5057978;28;20025;-85
2023/08/07 08:53:37;;;;;;;;;;;;;;;19.66;42.82;94162.34;5058843;28;20438;-85
2023/08/07 08:56:02;;;;;;;0.73;0.30;;;;;;;20.15;45.40;94161.59;5057961;28;19972;-85
2023/08/07 08:58:28;;;;;;;1.10;0.40;;;;;;;20.57;48.60;94160.59;5056839;28;20275;-86
2023/08/07 09:06:23;;;;;;;0.75;0.40;;;;;;;20.57;39.20;94173.88;5057930;28;20253;-86
2023/08/07 09:08:49;;;;;;;0.70;0.50;;;;;;;20.47;39.49;94175.13;5056467;28;20036;-86
2023/08/07 09:11:15;;;;;;;2.10;0.60;;;;;;;20.49;40.56;94176.31;5056834;28;20447;-82
2023/08/07 09:16:45;;;;;;;1.17;0.40;;;;;;;20.32;40.07;94179.22;5056939;28;20059;-85
2023/08/07 09:19:11;;;;;;;2.15;0.50;;;;;;;20.85;44.00;94176.63;5056569;28;20431;-84
2023/08/07 09:21:37;;;;;;;0.55;0.40;;;;;;;20.82;45.09;94179.19;5056377;28;20043;-85
2023/08/07 09:24:02;;;;;;;0.32;0.25;;;;;;;21.23;44.80;94171.94;5056255;28;20047;-83
2023/08/07 09:26:28;;;;;;;1.55;0.50;;;;;;;21.11;44.96;94185.31;5057798;28;20454;-85
2023/08/07 09:28:53;;;;;;;1.40;0.57;;;;;;;20.94;39.90;94189.78;5055848;28;20033;-86
2023/08/07 09:31:20;;;;;;;1.35;0.60;;;;;;;20.77;41.72;94182.84;5056805;28;20115;-85
2023/08/07 09:33:47;;;;;;;0.88;0.38;;;;;;;20.86;37.26;94185.38;5049976;28;20488;-86
2023/08/07 09:36:13;;;;;;;0.68;0.40;;;;;;;20.54;38.61;94187.88;5056178;28;20037;-84
2023/08/07 09:41:41;;;;;;;1.00;0.38;;;;;;;21.14;42.33;94200.63;5057258;28;20039;-84
2023/08/07 09:44:13;;;;;;;0.93;0.40;;;;;;;21.14;39.52;94197.94;5056203;28;20036;-85
2023/08/07 09:46:45;;;;;;;0.57;0.50;;;;;;;21.42;40.36;94194.50;5055748;28;20178;-83
2023/08/07 09:49:10;;;;;;;0.60;0.40;;;;;;;21.52;40.28;94201.22;5057268;28;20044;-86
2023/08/07 09:51:43;;;;;;;0.32;0.28;;;;;;;21.18;39.32;94190.81;5057271;28;20446;-85
2023/08/07 09:54:09;;;;;;;0.43;0.32;;;;;;;21.26;36.74;94195.25;5055975;28;20037;-88
2023/08/07 09:56:35;;;;;;;0.75;0.43;;;;;;;21.24;37.47;94191.34;5056221;28;20409;-86
2023/08/07 09:59:19;;;;;;;0.40;0.38;;;;;;;21.40;37.08;94196.75;5057101;28;20328;-87
2023/08/07 10:02:03;;;;;;;1.02;0.57;;;;;;;21.31;41.46;94187.00;5057074;28;20025;-83
2023/08/07 10:04:29;;;;;;;3.65;0.70;;;;;;;21.10;40.84;94195.19;5057153;28;20154;-84
2023/08/07 10:06:55;;;;;;;1.23;0.43;;;;;;;21.12;35.95;94194.84;5055954;28;20043;-86
2023/08/07 10:09:21;;;;;;;0.50;0.40;;;;;;;20.87;37.73;94192.25;5055537;28;20036;-84
2023/08/07 10:11:49;;;;;;;6.07;0.88;;;;;;;21.08;39.50;94205.41;5055607;28;20040;-86
2023/08/07 10:14:14;;;;;;;0.38;0.38;;;;;;;21.10;35.09;94197.84;5055829;28;20434;-86
2023/08/07 10:16:41;;;;;;;0.55;0.40;;;;;;;21.46;38.47;94196.16;5055782;28;20043;-85
2023/08/07 10:19:25;;;;;;;0.50;0.40;;;;;;;21.61;41.35;94199.94;5055621;28;20037;-84
2023/08/07 10:21:52;;;;;;;0.95;0.57;;;;;;;21.04;37.76;94199.97;5045292;28;20025;-86
2023/08/07 10:24:17;;;;;;;0.80;0.40;;;;;;;21.12;39.91;94208.16;5058219;28;20040;-86
2023/08/07 10:26:44;;;;;;;4.15;0.68;;;;;;;21.01;37.58;94198.00;5051179;28;20033;-84
2023/08/07 10:29:12;;;;;;;1.33;0.52;;;;;;;21.18;41.02;94204.94;5019034;28;20040;-87
2023/08/07 10:31:39;;;;;;;1.13;0.40;;;;;;;21.15;41.26;94207.50;5052168;28;20509;-85
2023/08/07 10:37:08;;;;;;;0.50;0.28;;;;;;;21.59;43.63;94212.06;5035643;28;20037;-87
2023/08/07 10:39:34;;;;;;;0.43;0.28;;;;;;;21.28;37.83;94200.22;5052426;28;20037;-84
2023/08/07 10:44:48;;;;;;;0.98;0.40;;;;;;;21.73;39.37;94219.69;5053744;28;20168;-88
2023/08/07 10:47:38;;;;;;;3.97;0.47;;;;;;;21.58;41.09;94215.84;5055160;28;20464;-83
2023/08/07 10:50:04;;;;;;;0.85;0.40;;;;;;;21.49;40.25;94205.34;5058899;28;20039;-84
2023/08/07 10:52:29;;;;;;;0.70;0.30;;;;;;;21.31;36.33;94205.66;5060821;28;20033;-86
2023/08/07 10:54:55;;;;;;;0.75;0.30;;;;;;;21.53;40.34;94205.44;5059339;28;20076;-86
2023/08/07 10:57:21;;;;;;;1.05;0.63;;;;;;;21.49;39.97;94200.00;5042716;28;20036;-86
2023/08/07 10:59:55;;;;;;;2.38;0.40;;;;;;;21.50;41.01;94209.56;5042565;28;20029;-87
2023/08/07 11:02:25;;;;;;;0.50;0.30;;;;;;;22.15;40.27;94210.41;5059230;28;20025;-85
2023/08/07 11:04:52;;;;;;;0.30;0.30;;;;;;;22.35;40.33;94205.16;5059300;28;20029;-86
2023/08/07 11:07:36;;;;;;;0.57;0.40;;;;;;;22.34;37.82;94200.94;5058882;28;20033;-83
2023/08/07 11:10:01;;;;;;;0.57;0.30;;;;;;;22.39;36.29;94200.66;5058678;28;20446;-87
2023/08/07 11:12:28;;;;;;;0.38;0.20;;;;;;;22.13;40.20;94204.66;5059058;28;20075;-87
2023/08/07 11:14:56;;;;;;;0.85;0.35;;;;;;;21.82;36.43;94206.97;5059042;28;20047;-86
2023/08/07 11:17:26;;;;;;;0.70;0.50;;;;;;;21.61;36.26;94207.19;5058768;28;20475;-85
2023/08/07 11:19:51;;;;;;;0.50;0.30;;;;;;;22.11;37.92;94204.22;5058799;28;20111;-83
2023/08/07 11:22:17;;;;;;;0.70;0.40;;;;;;;22.30;36.80;94206.19;5058691;28;20143;-85
2023/08/07 11:30:33;;;;;;;1.10;0.38;;;;;;;22.97;39.88;94192.03;5058656;28;20433;-85
2023/08/07 11:32:59;;;;;;;0.45;0.30;;;;;;;22.90;38.95;94193.78;5058655;28;20063;-84
2023/08/07 11:35:24;;;;;;;0.60;0.40;;;;;;;22.52;39.02;94191.47;5058686;28;20029;-85
2023/08/07 11:37:50;;;;;;;0.68;0.47;;;;;;;22.35;34.56;94195.25;5041875;28;20024;-85
2023/08/07 11:40:35;;;;;;;0.65;0.47;;;;;;;22.44;35.97;94198.50;5058200;28;20075;-84
2023/08/07 11:43:20;;;;;;;2.42;0.55;;;;;;;22.95;36.81;94194.25;5058234;28;20426;-85
2023/08/07 11:45:45;;;;;;;1.30;0.50;;;;;;;23.04;36.39;94196.75;5058391;28;20075;-85
2023/08/07 11:48:10;;;;;;;1.05;0.40;;;;;;;23.01;40.11;94200.88;5058493;28;20556;-85
2023/08/07 11:50:36;;;;;;;0.65;0.50;;;;;;;22.63;32.12;94205.03;5058335;28;20037;-86
2023/08/07 11:53:01;;;;;;;0.65;0.40;;;;;;;23.18;35.19;94212.28;5057183;28;20032;-88
2023/08/07 11:55:29;;;;;;;0.80;0.50;;;;;;;23.01;37.26;94211.56;5058196;28;20396;-89
2023/08/07 11:57:54;;;;;;;1.52;0.45;;;;;;;22.93;32.84;94215.22;5059764;28;20039;-87
2023/08/07 12:00:20;;;;;;;0.40;0.30;;;;;;;22.69;32.04;94208.22;5058006;28;20029;-84
2023/08/07 12:02:46;;;;;;;2.63;0.45;;;;;;;22.92;34.94;94211.00;5059115;28;20083;-87
2023/08/07 12:07:55;;;;;;;1.27;0.60;;;;;;;22.25;32.54;94219.81;5058285;28;20073;-85
2023/08/07 12:10:40;;;;;;;0.90;0.55;;;;;;;22.63;32.03;94218.38;5057703;28;20037;-86
2023/08/07 12:13:08;;;;;;;0.73;0.40;;;;;;;22.78;33.40;94214.16;5057692;28;20350;-88
2023/08/07 12:15:33;;;;;;;2.20;0.57;;;;;;;22.94;37.07;94210.66;5057673;28;20029;-86
2023/08/07 12:18:02;;;;;;;0.88;0.55;;;;;;;23.18;36.85;94224.88;5057576;28;20324;-88
2023/08/07 12:20:47;;;;;;;0.55;0.40;;;;;;;22.55;37.86;94203.34;5059178;28;20099;-85
2023/08/07 12:23:34;;;;;;;0.38;0.35;;;;;;;22.83;33.06;94223.78;5058746;28;20434;-87
2023/08/07 12:26:00;;;;;;;1.95;0.60;;;;;;;22.63;35.16;94210.38;5058935;28;20036;-85
2023/08/07 12:31:47;;;;;;;2.70;0.43;;;;;;;23.23;34.12;94203.22;5058493;28;20354;-87
2023/08/07 12:36:57;;;;;;;1.58;0.40;;;;;;;23.50;35.09;94214.81;5057535;28;20508;-85
2023/08/07 12:39:22;;;;;;;1.17;0.77;;;;;;;22.94;30.75;94200.72;5056121;28;20036;-85
2023/08/07 12:41:49;;;;;;;0.63;0.52;;;;;;;22.57;31.71;94196.53;5037450;28;20116;-84
2023/08/07 12:44:14;;;;;;;3.30;0.70;;;;;;;23.06;35.37;94202.50;5037392;28;20060;-84
2023/08/07 12:46:40;;;;;;;0.60;0.40;;;;;;;23.57;36.61;94212.28;5037399;28;20431;-87
2023/08/07 12:49:12;;;;;;;1.05;0.50;;;;;;;23.38;34.26;94198.91;5038748;28;20100;-84
2023/08/07 12:51:57;;;;;;;1.05;0.52;;;;;;;23.57;34.01;94200.81;5037297;28;20120;-83
2023/08/07 12:54:23;;;;;;;2.58;0.50;;;;;;;23.55;33.17;94201.16;5038316;28;20518;-87
2023/08/07 12:56:48;;;;;;;0.77;0.50;;;;;;;23.79;34.25;94193.94;5038163;28;20056;-83
2023/08/07 12:59:14;;;;;;;0.80;0.70;;;;;;;23.81;30.57;94189.00;5038170;28;20091;-87
2023/08/07 13:01:39;;;;;;;6.32;0.32;;;;;;;23.39;33.75;94200.50;5037272;28;20115;-84